createdAt,value
2022-11-26T00:00:32.820Z,100712.09
2022-11-26T00:02:35.683Z,100704.03
2022-11-26T00:04:38.610Z,100706.94
2022-11-26T00:06:44.953Z,100716.66
2022-11-26T00:08:47.616Z,100716.03
2022-11-26T00:10:52.865Z,100711.88
2022-11-26T00:12:56.208Z,100709.63
2022-11-26T00:15:00.375Z,100707.78
2022-11-26T00:17:03.113Z,100706.09
2022-11-26T00:19:06.152Z,100709.81
2022-11-26T00:21:23.108Z,100711.69
2022-11-26T00:23:28.509Z,100716.03
2022-11-26T00:25:39.061Z,100709.19
2022-11-26T00:27:41.784Z,100710.03
2022-11-26T00:29:44.457Z,100712.72
2022-11-26T00:31:47.139Z,100712.72
2022-11-26T00:33:49.996Z,100709.81
2022-11-26T00:35:59.377Z,100713.56
2022-11-26T00:38:03.043Z,100710.88
2022-11-26T00:40:06.434Z,100710.03
2022-11-26T00:42:11.018Z,100707.78
2022-11-26T00:44:21.566Z,100708.41
2022-11-26T00:46:24.271Z,100721.84
2022-11-26T00:48:26.865Z,100718.09
2022-11-26T00:50:43.874Z,100706.34
2022-11-26T00:52:49.208Z,100719.56
2022-11-26T00:54:51.822Z,100717.72
2022-11-26T00:56:55.154Z,100716.50
2022-11-26T00:58:58.061Z,100719.56
2022-11-26T01:01:00.781Z,100706.97
2022-11-26T01:03:03.552Z,100713.38
2022-11-26T01:05:08.686Z,100712.34
2022-11-26T01:07:11.450Z,100718.75
2022-11-26T01:09:19.634Z,100707.34
2022-11-26T01:11:23.824Z,100716.06
2022-11-26T01:13:27.522Z,100716.69
2022-11-26T01:15:30.197Z,100713.38
2022-11-26T01:17:32.750Z,100716.50
2022-11-26T01:19:36.561Z,100722.06
2022-11-26T01:21:39.592Z,100718.13
2022-11-26T01:23:42.415Z,100724.56
2022-11-26T01:25:46.649Z,100725.16
2022-11-26T01:27:49.870Z,100722.47
2022-11-26T01:29:52.463Z,100726.84
2022-11-26T01:31:55.122Z,100728.69
2022-11-26T01:33:58.398Z,100720.81
2022-11-26T01:36:01.083Z,100733.84
2022-11-26T01:38:04.721Z,100729.94
2022-11-26T01:40:25.491Z,100727.25
2022-11-26T01:42:51.091Z,100725.97
2022-11-26T01:44:53.681Z,100726.19
2022-11-26T01:46:57.322Z,100738.78
2022-11-26T01:49:21.381Z,100727.41
2022-11-26T01:51:27.463Z,100732.97
2022-11-26T01:53:59.218Z,100739.38
2022-11-26T01:56:14.221Z,100738.75
2022-11-26T01:58:21.785Z,100736.47
2022-11-26T02:00:24.667Z,100738.13
2022-11-26T02:02:30.185Z,100741.84
2022-11-26T02:04:56.736Z,100732.97
2022-11-26T02:07:00.028Z,100740.81
2022-11-26T02:09:06.350Z,100732.97
2022-11-26T02:11:18.491Z,100741.84
2022-11-26T02:13:41.380Z,100736.47
2022-11-26T02:15:55.034Z,100731.28
2022-11-26T02:18:03.489Z,100733.16
2022-11-26T02:20:31.007Z,100742.88
2022-11-26T02:22:48.451Z,100739.34
2022-11-26T02:25:04.290Z,100737.72
2022-11-26T02:27:51.410Z,100740.19
2022-11-26T02:30:12.439Z,100739.16
2022-11-26T02:32:20.981Z,100739.34
2022-11-26T02:34:34.260Z,100740.19
2022-11-26T02:36:52.372Z,100735.84
2022-11-26T02:38:55.012Z,100733.97
2022-11-26T02:40:57.881Z,100748.25
2022-11-26T02:43:00.467Z,100741.03
2022-11-26T02:45:10.487Z,100746.19
2022-11-26T02:47:16.239Z,100749.91
2022-11-26T02:49:22.388Z,100739.16
2022-11-26T02:51:32.005Z,100744.34
2022-11-26T02:53:39.479Z,100743.50
2022-11-26T02:55:49.085Z,100736.28
2022-11-26T02:57:52.610Z,100740.00
2022-11-26T02:59:56.009Z,100736.06
2022-11-26T03:02:05.144Z,100746.81
2022-11-26T03:04:13.038Z,100739.59
2022-11-26T03:06:18.277Z,100736.72
2022-11-26T03:08:21.506Z,100744.78
2022-11-26T03:10:29.752Z,100742.91
2022-11-26T03:12:32.525Z,100736.50
2022-11-26T03:14:35.340Z,100737.34
2022-11-26T03:16:38.260Z,100737.53
2022-11-26T03:18:41.117Z,100734.25
2022-11-26T03:20:43.732Z,100741.47
2022-11-26T03:22:46.334Z,100742.31
2022-11-26T03:24:49.027Z,100750.38
2022-11-26T03:26:51.695Z,100746.03
2022-11-26T03:28:54.244Z,100747.91
2022-11-26T03:30:56.970Z,100753.47
2022-11-26T03:32:59.617Z,100750.59
2022-11-26T03:35:02.432Z,100741.88
2022-11-26T03:37:06.172Z,100747.50
2022-11-26T03:39:08.831Z,100758.25
2022-11-26T03:41:11.543Z,100752.00
2022-11-26T03:43:14.166Z,100759.47
2022-11-26T03:45:16.762Z,100755.97
2022-11-26T03:47:19.451Z,100762.16
2022-11-26T03:49:22.137Z,100761.13
2022-11-26T03:51:24.836Z,100761.34
2022-11-26T03:53:27.808Z,100760.47
2022-11-26T03:55:30.376Z,100767.72
2022-11-26T03:57:33.109Z,100766.09
2022-11-26T03:59:35.852Z,100771.44
2022-11-26T04:01:38.532Z,100769.41
2022-11-26T04:03:41.568Z,100773.91
2022-11-26T04:05:44.254Z,100773.53
2022-11-26T04:07:46.903Z,100775.19
2022-11-26T04:09:49.571Z,100778.69
2022-11-26T04:11:52.323Z,100779.56
2022-11-26T04:13:54.953Z,100780.16
2022-11-26T04:15:57.580Z,100776.66
2022-11-26T04:18:00.251Z,100775.00
2022-11-26T04:20:03.203Z,100779.75
2022-11-26T04:22:06.173Z,100779.56
2022-11-26T04:24:09.132Z,100780.38
2022-11-26T04:26:11.736Z,100787.41
2022-11-26T04:28:15.338Z,100784.72
2022-11-26T04:30:18.208Z,100781.84
2022-11-26T04:32:21.084Z,100780.78
2022-11-26T04:34:23.692Z,100789.91
2022-11-26T04:36:26.491Z,100792.59
2022-11-26T04:38:29.087Z,100784.31
2022-11-26T04:40:31.949Z,100786.56
2022-11-26T04:42:34.987Z,100791.16
2022-11-26T04:44:37.777Z,100793.84
2022-11-26T04:46:40.599Z,100794.44
2022-11-26T04:48:43.263Z,100789.72
2022-11-26T04:50:46.104Z,100793.84
2022-11-26T04:52:49.521Z,100788.69
2022-11-26T04:54:52.181Z,100806.31
2022-11-26T04:56:54.777Z,100796.78
2022-11-26T04:58:57.404Z,100803.84
2022-11-26T05:01:00.771Z,100794.53
2022-11-26T05:03:03.491Z,100801.38
2022-11-26T05:05:06.527Z,100794.75
2022-11-26T05:07:09.376Z,100797.91
2022-11-26T05:09:12.407Z,100791.25
2022-11-26T05:11:15.093Z,100790.84
2022-11-26T05:13:17.723Z,100796.03
2022-11-26T05:15:20.696Z,100792.09
2022-11-26T05:17:23.261Z,100805.13
2022-11-26T05:19:26.015Z,100803.28
2022-11-26T05:21:28.663Z,100797.69
2022-11-26T05:23:31.219Z,100796.47
2022-11-26T05:25:33.982Z,100800.41
2022-11-26T05:27:36.905Z,100804.97
2022-11-26T05:29:39.561Z,100801.84
2022-11-26T05:31:42.369Z,100800.63
2022-11-26T05:33:45.131Z,100806.81
2022-11-26T05:35:47.749Z,100808.50
2022-11-26T05:37:50.513Z,100793.19
2022-11-26T05:39:53.184Z,100803.53
2022-11-26T05:41:55.874Z,100805.59
2022-11-26T05:43:58.654Z,100806.03
2022-11-26T05:46:06.386Z,100807.06
2022-11-26T05:48:09.138Z,100812.25
2022-11-26T05:50:12.460Z,100809.56
2022-11-26T05:52:15.348Z,100815.75
2022-11-26T05:54:18.325Z,100804.38
2022-11-26T05:56:21.017Z,100814.75
2022-11-26T05:58:23.733Z,100818.88
2022-11-26T06:00:26.711Z,100819.53
2022-11-26T06:02:29.849Z,100820.53
2022-11-26T06:04:32.866Z,100820.13
2022-11-26T06:06:35.815Z,100818.06
2022-11-26T06:08:38.471Z,100822.19
2022-11-26T06:10:44.822Z,100817.25
2022-11-26T06:12:47.449Z,100827.59
2022-11-26T06:14:50.256Z,100831.97
2022-11-26T06:16:52.964Z,100824.28
2022-11-26T06:18:56.434Z,100829.28
2022-11-26T06:21:03.898Z,100829.47
2022-11-26T06:23:06.483Z,100831.75
2022-11-26T06:25:11.056Z,100832.56
2022-11-26T06:27:13.745Z,100831.75
2022-11-26T06:29:16.807Z,100827.41
2022-11-26T06:31:19.466Z,100836.94
2022-11-26T06:33:22.389Z,100833.44
2022-11-26T06:35:25.157Z,100842.72
2022-11-26T06:37:27.869Z,100845.03
2022-11-26T06:39:30.617Z,100841.91
2022-11-26T06:41:36.565Z,100840.28
2022-11-26T06:43:41.237Z,100842.34
2022-11-26T06:45:43.948Z,100842.94
2022-11-26T06:47:48.344Z,100851.03
2022-11-26T06:49:51.038Z,100853.53
2022-11-26T06:51:54.293Z,100841.69
2022-11-26T06:53:57.146Z,100849.59
2022-11-26T06:56:05.497Z,100850.84
2022-11-26T06:58:08.122Z,100851.47
2022-11-26T07:00:11.594Z,100847.53
2022-11-26T07:02:14.364Z,100843.59
2022-11-26T07:04:17.071Z,100856.84
2022-11-26T07:06:24.184Z,100851.47
2022-11-26T07:08:27.088Z,100849.78
2022-11-26T07:10:30.287Z,100852.50
2022-11-26T07:12:32.981Z,100861.41
2022-11-26T07:14:37.143Z,100853.34
2022-11-26T07:16:41.339Z,100857.88
2022-11-26T07:18:47.618Z,100848.97
2022-11-26T07:20:50.298Z,100855.63
2022-11-26T07:22:55.906Z,100852.69
2022-11-26T07:24:58.469Z,100847.72
2022-11-26T07:27:01.235Z,100856.88
2022-11-26T07:29:04.221Z,100852.94
2022-11-26T07:31:17.007Z,100858.94
2022-11-26T07:33:20.052Z,100853.13
2022-11-26T07:35:22.718Z,100857.25
2022-11-26T07:37:25.315Z,100852.50
2022-11-26T07:39:27.970Z,100854.56
2022-11-26T07:41:31.228Z,100856.66
2022-11-26T07:43:38.756Z,100854.97
2022-11-26T07:45:41.532Z,100841.09
2022-11-26T07:47:44.223Z,100853.91
2022-11-26T07:49:46.942Z,100856.63
2022-11-26T07:51:49.645Z,100855.78
2022-11-26T07:53:53.092Z,100862.00
2022-11-26T07:55:55.933Z,100870.72
2022-11-26T07:57:58.827Z,100860.78
2022-11-26T08:00:01.447Z,100862.88
2022-11-26T08:02:05.173Z,100862.03
2022-11-26T08:04:08.103Z,100862.88
2022-11-26T08:06:13.667Z,100861.81
2022-11-26T08:08:16.375Z,100854.97
2022-11-26T08:10:19.210Z,100873.22
2022-11-26T08:12:21.885Z,100865.94
2022-11-26T08:14:24.474Z,100868.66
2022-11-26T08:16:29.116Z,100861.63
2022-11-26T08:18:32.057Z,100861.81
2022-11-26T08:20:34.667Z,100862.44
2022-11-26T08:22:37.349Z,100847.50
2022-11-26T08:24:40.413Z,100868.44
2022-11-26T08:26:44.807Z,100867.41
2022-11-26T08:28:48.318Z,100864.69
2022-11-26T08:30:51.049Z,100862.00
2022-11-26T08:32:53.697Z,100858.47
2022-11-26T08:34:56.381Z,100852.66
2022-11-26T08:36:59.211Z,100852.84
2022-11-26T08:39:01.853Z,100858.66
2022-11-26T08:41:07.935Z,100847.06
2022-11-26T08:43:10.544Z,100856.59
2022-11-26T08:45:13.165Z,100862.59
2022-11-26T08:47:15.802Z,100862.38
2022-11-26T08:49:18.376Z,100857.22
2022-11-26T08:51:20.921Z,100852.41
2022-11-26T08:53:23.599Z,100857.81
2022-11-26T08:55:27.085Z,100854.91
2022-11-26T08:57:30.314Z,100874.84
2022-11-26T08:59:33.547Z,100864.88
2022-11-26T09:01:36.855Z,100869.44
2022-11-26T09:03:40.690Z,100873.78
2022-11-26T09:05:43.833Z,100868.38
2022-11-26T09:07:49.103Z,100867.13
2022-11-26T09:09:52.080Z,100874.81
2022-11-26T09:12:00.212Z,100873.97
2022-11-26T09:14:03.918Z,100871.88
2022-11-26T09:16:06.752Z,100876.84
2022-11-26T09:18:09.461Z,100882.03
2022-11-26T09:20:12.871Z,100875.81
2022-11-26T09:22:15.564Z,100877.91
2022-11-26T09:24:18.495Z,100878.53
2022-11-26T09:26:21.960Z,100887.63
2022-11-26T09:28:24.573Z,100883.09
2022-11-26T09:30:27.390Z,100878.53
2022-11-26T09:32:34.040Z,100884.53
2022-11-26T09:34:37.719Z,100876.22
2022-11-26T09:36:40.729Z,100880.59
2022-11-26T09:38:43.884Z,100877.03
2022-11-26T09:40:59.822Z,100881.41
2022-11-26T09:43:15.695Z,100883.03
2022-11-26T09:45:48.263Z,100882.59
2022-11-26T09:47:54.088Z,100884.91
2022-11-26T09:50:09.210Z,100889.03
2022-11-26T09:52:16.721Z,100887.56
2022-11-26T09:54:23.763Z,100889.03
2022-11-26T09:56:27.977Z,100892.09
2022-11-26T09:58:40.771Z,100889.41
2022-11-26T10:00:46.448Z,100895.84
2022-11-26T10:02:52.717Z,100890.44
2022-11-26T10:04:55.396Z,100892.69
2022-11-26T10:07:22.934Z,100882.53
2022-11-26T10:09:44.678Z,100887.69
2022-11-26T10:12:04.036Z,100884.41
2022-11-26T10:14:12.413Z,100893.94
2022-11-26T10:16:28.519Z,100895.38
2022-11-26T10:18:47.754Z,100897.25
2022-11-26T10:21:02.375Z,100891.84
2022-11-26T10:23:13.930Z,100900.34
2022-11-26T10:25:20.719Z,100894.94
2022-11-26T10:27:27.270Z,100900.34
2022-11-26T10:29:42.849Z,100899.91
2022-11-26T10:31:48.045Z,100902.41
2022-11-26T10:34:04.290Z,100901.56
2022-11-26T10:36:16.154Z,100895.13
2022-11-26T10:38:19.313Z,100889.34
2022-11-26T10:40:26.769Z,100904.88
2022-11-26T10:42:44.513Z,100905.91
2022-11-26T10:44:49.659Z,100904.88
2022-11-26T10:46:52.359Z,100905.91
2022-11-26T10:48:54.988Z,100903.63
2022-11-26T10:51:07.417Z,100903.41
2022-11-26T10:53:22.469Z,100905.69
2022-11-26T10:55:28.059Z,100909.81
2022-11-26T10:57:30.791Z,100910.66
2022-11-26T10:59:41.049Z,100911.69
2022-11-26T11:01:44.092Z,100910.44
2022-11-26T11:04:13.899Z,100915.59
2022-11-26T11:06:19.574Z,100914.59
2022-11-26T11:08:33.169Z,100912.28
2022-11-26T11:10:36.188Z,100917.28
2022-11-26T11:12:40.943Z,100919.75
2022-11-26T11:14:45.845Z,100921.22
2022-11-26T11:16:48.851Z,100924.13
2022-11-26T11:19:03.172Z,100918.72
2022-11-26T11:21:06.669Z,100922.25
2022-11-26T11:23:12.509Z,100924.75
2022-11-26T11:25:23.922Z,100924.75
2022-11-26T11:27:37.879Z,100928.25
2022-11-26T11:29:40.800Z,100920.78
2022-11-26T11:31:47.347Z,100925.94
2022-11-26T11:33:51.772Z,100930.53
2022-11-26T11:36:00.332Z,100920.53
2022-11-26T11:38:03.156Z,100918.44
2022-11-26T11:40:17.080Z,100920.94
2022-11-26T11:42:30.321Z,100924.91
2022-11-26T11:44:44.602Z,100919.50
2022-11-26T11:47:13.112Z,100923.66
2022-11-26T11:49:41.402Z,100923.66
2022-11-26T11:52:12.232Z,100921.78
2022-11-26T11:55:10.822Z,100925.28
2022-11-26T11:58:09.821Z,100925.75
2022-11-26T12:00:17.219Z,100924.09
2022-11-26T12:02:32.403Z,100933.63
2022-11-26T12:05:04.846Z,100935.50
2022-11-26T12:07:25.839Z,100940.50
2022-11-26T12:09:34.261Z,100939.44
2022-11-26T12:12:12.850Z,100940.72
2022-11-26T12:14:23.821Z,100948.00
2022-11-26T12:16:32.601Z,100950.50
2022-11-26T12:18:51.740Z,100949.44
2022-11-26T12:20:59.852Z,100946.72
2022-11-26T12:23:27.027Z,100950.03
2022-11-26T12:25:37.880Z,100949.84
2022-11-26T12:27:47.165Z,100940.31
2022-11-26T12:30:15.005Z,100945.25
2022-11-26T12:32:25.755Z,100941.28
2022-11-26T12:34:41.340Z,100946.69
2022-11-26T12:37:05.501Z,100950.88
2022-11-26T12:39:19.337Z,100948.78
2022-11-26T12:41:43.954Z,100948.78
2022-11-26T12:44:11.878Z,100946.31
2022-11-26T12:46:23.106Z,100950.50
2022-11-26T12:48:43.594Z,100955.28
2022-11-26T12:50:56.031Z,100948.00
2022-11-26T12:53:27.041Z,100949.06
2022-11-26T12:55:42.004Z,100951.97
2022-11-26T12:57:55.776Z,100947.81
2022-11-26T13:00:11.376Z,100953.66
2022-11-26T13:02:31.806Z,100957.00
2022-11-26T13:04:38.419Z,100961.56
2022-11-26T13:06:44.167Z,100971.97
2022-11-26T13:08:55.056Z,100960.34
2022-11-26T13:11:18.781Z,100962.84
2022-11-26T13:13:30.335Z,100975.28
2022-11-26T13:16:03.787Z,100975.72
2022-11-26T13:18:18.498Z,100975.94
2022-11-26T13:20:45.374Z,100976.38
2022-11-26T13:23:19.478Z,100981.34
2022-11-26T13:25:58.749Z,100969.28
2022-11-26T13:28:25.863Z,100970.38
2022-11-26T13:30:46.702Z,100972.00
2022-11-26T13:33:04.592Z,100972.06
2022-11-26T13:35:40.873Z,100982.41
2022-11-26T13:38:11.268Z,100978.06
2022-11-26T13:40:19.576Z,100978.06
2022-11-26T13:42:34.249Z,100974.31
2022-11-26T13:44:54.607Z,100978.06
2022-11-26T13:47:28.197Z,100977.66
2022-11-26T13:49:52.711Z,100977.22
2022-11-26T13:52:23.886Z,100984.50
2022-11-26T13:54:47.249Z,100986.38
2022-11-26T13:56:57.302Z,100988.47
2022-11-26T13:59:26.843Z,100978.72
2022-11-26T14:01:41.525Z,100979.72
2022-11-26T14:03:47.246Z,100987.19
2022-11-26T14:05:49.737Z,100993.03
2022-11-26T14:08:30.709Z,100997.19
2022-11-26T14:10:38.966Z,100990.13
2022-11-26T14:13:03.132Z,100990.34
2022-11-26T14:15:41.106Z,100999.88
2022-11-26T14:17:57.023Z,100994.09
2022-11-26T14:20:00.183Z,100995.13
2022-11-26T14:22:03.938Z,101000.09
2022-11-26T14:24:06.758Z,101009.22
2022-11-26T14:26:19.329Z,101003.44
2022-11-26T14:28:22.536Z,101007.59
2022-11-26T14:30:28.508Z,101011.09
2022-11-26T14:32:37.808Z,101009.66
2022-11-26T14:34:49.862Z,101009.22
2022-11-26T14:36:54.023Z,101011.53
2022-11-26T14:39:10.122Z,101018.19
2022-11-26T14:41:12.795Z,101006.75
2022-11-26T14:43:20.286Z,101016.94
2022-11-26T14:45:24.406Z,101011.72
2022-11-26T14:47:27.461Z,101007.19
2022-11-26T14:49:32.477Z,101014.22
2022-11-26T14:51:35.705Z,101017.13
2022-11-26T14:53:47.693Z,101017.13
2022-11-26T14:55:50.717Z,101004.50
2022-11-26T14:58:04.867Z,101014.66
2022-11-26T15:00:12.922Z,101016.53
2022-11-26T15:02:22.557Z,101015.06
2022-11-26T15:04:30.535Z,101008.44
2022-11-26T15:06:38.657Z,101015.88
2022-11-26T15:08:41.359Z,101017.97
2022-11-26T15:10:49.707Z,101011.53
2022-11-26T15:12:53.727Z,101021.72
2022-11-26T15:14:59.180Z,101021.06
2022-11-26T15:17:03.225Z,101015.69
2022-11-26T15:19:07.251Z,101017.13
2022-11-26T15:21:16.991Z,101021.72
2022-11-26T15:23:28.493Z,101028.75
2022-11-26T15:25:34.718Z,101024.19
2022-11-26T15:27:41.322Z,101022.53
2022-11-26T15:29:50.209Z,101016.69
2022-11-26T15:31:52.784Z,101026.03
2022-11-26T15:33:55.465Z,101023.75
2022-11-26T15:35:58.545Z,101025.41
2022-11-26T15:38:01.308Z,101030.19
2022-11-26T15:40:22.751Z,101026.47
2022-11-26T15:42:30.117Z,101028.31
2022-11-26T15:44:40.533Z,101025.19
2022-11-26T15:46:49.478Z,101028.09
2022-11-26T15:48:59.346Z,101028.53
2022-11-26T15:51:04.810Z,101030.38
2022-11-26T15:53:17.547Z,101030.16
2022-11-26T15:55:26.561Z,101039.91
2022-11-26T15:57:33.874Z,101037.41
2022-11-26T15:59:49.956Z,101042.38
2022-11-26T16:01:53.158Z,101034.06
2022-11-26T16:03:57.094Z,101036.78
2022-11-26T16:06:01.269Z,101041.34
2022-11-26T16:08:28.250Z,101045.47
2022-11-26T16:10:35.762Z,101041.78
2022-11-26T16:12:44.493Z,101049.00
2022-11-26T16:14:47.031Z,101046.31
2022-11-26T16:16:52.913Z,101046.53
2022-11-26T16:19:01.210Z,101041.16
2022-11-26T16:21:30.782Z,101040.28
2022-11-26T16:23:33.615Z,101043.00
2022-11-26T16:25:37.483Z,101046.09
2022-11-26T16:27:40.097Z,101043.59
2022-11-26T16:29:42.633Z,101050.66
2022-11-26T16:31:45.431Z,101050.22
2022-11-26T16:33:48.001Z,101047.53
2022-11-26T16:35:50.569Z,101046.50
2022-11-26T16:37:53.782Z,101053.13
2022-11-26T16:40:26.413Z,101057.06
2022-11-26T16:42:30.512Z,101053.13
2022-11-26T16:44:33.064Z,101057.88
2022-11-26T16:46:38.008Z,101059.50
2022-11-26T16:48:41.746Z,101055.63
2022-11-26T16:50:44.596Z,101060.16
2022-11-26T16:52:47.660Z,101069.28
2022-11-26T16:54:50.519Z,101062.63
2022-11-26T16:56:56.086Z,101066.78
2022-11-26T16:59:00.134Z,101070.94
2022-11-26T17:01:02.854Z,101062.66
2022-11-26T17:03:08.093Z,101073.63
2022-11-26T17:05:13.501Z,101076.72
2022-11-26T17:07:21.050Z,101064.06
2022-11-26T17:09:23.589Z,101068.84
2022-11-26T17:11:26.801Z,101076.47
2022-11-26T17:13:31.198Z,101070.91
2022-11-26T17:15:33.971Z,101070.69
2022-11-26T17:17:36.713Z,101071.91
2022-11-26T17:19:39.452Z,101072.72
2022-11-26T17:21:42.576Z,101081.44
2022-11-26T17:23:45.196Z,101078.75
2022-11-26T17:25:53.441Z,101082.69
2022-11-26T17:27:56.125Z,101079.81
2022-11-26T17:29:58.637Z,101082.91
2022-11-26T17:32:01.531Z,101076.88
2022-11-26T17:34:04.245Z,101078.72
2022-11-26T17:36:16.571Z,101079.53
2022-11-26T17:38:21.977Z,101083.69
2022-11-26T17:40:25.165Z,101077.03
2022-11-26T17:42:32.173Z,101077.63
2022-11-26T17:44:37.646Z,101076.63
2022-11-26T17:47:09.014Z,101080.94
2022-11-26T17:49:04.653Z,101076.59
2022-11-26T17:51:07.548Z,101074.31
2022-11-26T17:53:10.210Z,101083.19
2022-11-26T17:55:13.712Z,101085.69
2022-11-26T17:57:17.310Z,101081.16
2022-11-26T17:59:21.922Z,101087.16
2022-11-26T18:01:26.785Z,101087.34
2022-11-26T18:03:29.483Z,101087.34
2022-11-26T18:05:32.096Z,101090.88
2022-11-26T18:07:42.881Z,101090.03
2022-11-26T18:09:47.071Z,101091.69
2022-11-26T18:11:53.462Z,101098.53
2022-11-26T18:13:56.088Z,101101.66
2022-11-26T18:16:01.746Z,101106.63
2022-11-26T18:18:04.718Z,101096.84
2022-11-26T18:20:07.955Z,101096.84
2022-11-26T18:22:14.473Z,101100.13
2022-11-26T18:24:17.289Z,101103.66
2022-11-26T18:26:19.953Z,101102.19
2022-11-26T18:28:22.539Z,101103.66
2022-11-26T18:30:25.486Z,101096.16
2022-11-26T18:32:28.176Z,101101.78
2022-11-26T18:34:30.730Z,101095.94
2022-11-26T18:36:33.357Z,101093.47
2022-11-26T18:38:37.944Z,101101.91
2022-11-26T18:40:40.549Z,101101.72
2022-11-26T18:42:44.101Z,101095.31
2022-11-26T18:44:46.714Z,101102.56
2022-11-26T18:46:49.344Z,101104.66
2022-11-26T18:48:52.331Z,101106.34
2022-11-26T18:50:58.070Z,101101.72
2022-11-26T18:53:00.748Z,101100.91
2022-11-26T18:55:05.666Z,101105.25
2022-11-26T18:57:08.679Z,101098.84
2022-11-26T18:59:14.702Z,101103.81
2022-11-26T19:01:29.764Z,101099.03
2022-11-26T19:03:33.743Z,101101.53
2022-11-26T19:05:40.157Z,101094.06
2022-11-26T19:07:44.144Z,101111.22
2022-11-26T19:10:07.485Z,101104.19
2022-11-26T19:12:12.993Z,101106.00
2022-11-26T19:14:16.532Z,101106.19
2022-11-26T19:16:20.182Z,101114.06
2022-11-26T19:18:22.813Z,101111.16
2022-11-26T19:20:25.370Z,101114.72
2022-11-26T19:22:27.925Z,101113.22
2022-11-26T19:24:30.796Z,101119.25
2022-11-26T19:26:34.075Z,101117.59
2022-11-26T19:28:36.622Z,101120.88
2022-11-26T19:30:39.303Z,101128.75
2022-11-26T19:32:42.106Z,101122.75
2022-11-26T19:34:44.866Z,101127.28
2022-11-26T19:36:49.180Z,101127.72
2022-11-26T19:38:56.624Z,101122.53
2022-11-26T19:41:00.625Z,101127.28
2022-11-26T19:43:03.256Z,101122.28
2022-11-26T19:45:06.285Z,101137.19
2022-11-26T19:47:28.905Z,101133.50
2022-11-26T19:49:31.535Z,101132.84
2022-11-26T19:51:34.192Z,101138.25
2022-11-26T19:53:38.139Z,101135.38
2022-11-26T19:55:40.945Z,101137.41
2022-11-26T19:57:43.570Z,101134.84
2022-11-26T19:59:46.249Z,101139.84
2022-11-26T20:01:49.272Z,101146.06
2022-11-26T20:03:52.373Z,101140.88
2022-11-26T20:05:54.952Z,101147.28
2022-11-26T20:07:57.747Z,101146.19
2022-11-26T20:10:00.387Z,101147.00
2022-11-26T20:12:03.048Z,101152.97
2022-11-26T20:14:09.699Z,101150.50
2022-11-26T20:16:16.006Z,101146.13
2022-11-26T20:18:18.578Z,101149.88
2022-11-26T20:20:21.401Z,101151.28
2022-11-26T20:22:27.769Z,101164.72
2022-11-26T20:24:31.069Z,101157.44
2022-11-26T20:26:39.157Z,101160.13
2022-11-26T20:28:41.763Z,101161.31
2022-11-26T20:30:44.323Z,101167.72
2022-11-26T20:32:49.270Z,101176.63
2022-11-26T20:34:51.849Z,101164.63
2022-11-26T20:36:54.460Z,101169.13
2022-11-26T20:39:00.396Z,101169.06
2022-11-26T20:41:17.940Z,101168.63
2022-11-26T20:43:20.534Z,101175.22
2022-11-26T20:45:23.185Z,101168.00
2022-11-26T20:47:25.736Z,101176.88
2022-11-26T20:49:33.416Z,101179.38
2022-11-26T20:51:37.856Z,101173.63
2022-11-26T20:53:41.777Z,101175.66
2022-11-26T20:55:53.329Z,101181.91
2022-11-26T20:57:56.413Z,101182.91
2022-11-26T20:59:59.092Z,101181.03
2022-11-26T21:02:01.801Z,101183.16
2022-11-26T21:04:04.940Z,101175.94
2022-11-26T21:06:07.829Z,101178.63
2022-11-26T21:08:10.813Z,101183.38
2022-11-26T21:10:14.802Z,101175.09
2022-11-26T21:12:17.421Z,101178.63
2022-11-26T21:14:20.026Z,101181.03
2022-11-26T21:16:23.577Z,101174.19
2022-11-26T21:18:26.399Z,101174.19
2022-11-26T21:20:33.428Z,101186.81
2022-11-26T21:22:39.083Z,101183.28
2022-11-26T21:24:41.725Z,101174.59
2022-11-26T21:26:44.378Z,101179.31
2022-11-26T21:28:54.622Z,101176.44
2022-11-26T21:30:58.537Z,101175.41
2022-11-26T21:33:08.787Z,101174.59
2022-11-26T21:35:12.158Z,101181.59
2022-11-26T21:37:14.760Z,101184.69
2022-11-26T21:39:17.437Z,101184.88
2022-11-26T21:41:21.082Z,101196.66
2022-11-26T21:43:23.656Z,101187.13
2022-11-26T21:45:27.912Z,101193.53
2022-11-26T21:47:30.656Z,101190.19
2022-11-26T21:49:33.454Z,101198.63
2022-11-26T21:51:36.229Z,101195.75
2022-11-26T21:53:39.227Z,101192.41
2022-11-26T21:55:42.017Z,101190.78
2022-11-26T21:57:44.661Z,101188.66
2022-11-26T21:59:47.366Z,101197.97
2022-11-26T22:01:50.121Z,101185.97
2022-11-26T22:03:54.719Z,101195.38
2022-11-26T22:05:59.874Z,101194.53
2022-11-26T22:08:03.193Z,101190.94
2022-11-26T22:10:07.628Z,101186.03
2022-11-26T22:12:11.600Z,101193.25
2022-11-26T22:14:16.144Z,101187.69
2022-11-26T22:16:20.593Z,101188.50
2022-11-26T22:18:23.309Z,101186.41
2022-11-26T22:20:26.237Z,101188.25
2022-11-26T22:22:28.842Z,101194.03
2022-11-26T22:24:31.546Z,101192.72
2022-11-26T22:26:34.618Z,101188.56
2022-11-26T22:28:38.852Z,101188.94
2022-11-26T22:30:41.479Z,101195.16
2022-11-26T22:32:44.261Z,101192.66
2022-11-26T22:34:46.864Z,101188.47
2022-11-26T22:36:49.502Z,101181.38
2022-11-26T22:38:52.718Z,101193.19
2022-11-26T22:40:55.368Z,101185.34
2022-11-26T22:42:59.049Z,101187.19
2022-11-26T22:45:01.805Z,101188.66
2022-11-26T22:47:06.260Z,101195.06
2022-11-26T22:49:13.203Z,101187.38
2022-11-26T22:51:15.758Z,101190.09
2022-11-26T22:53:18.611Z,101196.66
2022-11-26T22:55:21.336Z,101199.69
2022-11-26T22:57:25.652Z,101192.47
2022-11-26T22:59:28.371Z,101196.19
2022-11-26T23:01:33.748Z,101203.44
2022-11-26T23:03:38.366Z,101203.97
2022-11-26T23:05:41.269Z,101201.13
2022-11-26T23:07:43.927Z,101211.41
2022-11-26T23:09:47.095Z,101212.88
2022-11-26T23:11:51.021Z,101216.78
2022-11-26T23:13:54.649Z,101208.88
2022-11-26T23:15:57.280Z,101203.34
2022-11-26T23:18:00.018Z,101205.38
2022-11-26T23:20:02.874Z,101216.13
2022-11-26T23:22:06.469Z,101210.28
2022-11-26T23:24:09.708Z,101205.09
2022-11-26T23:26:19.451Z,101199.56
2022-11-26T23:28:25.887Z,101199.72
2022-11-26T23:30:29.136Z,101180.00
2022-11-26T23:32:32.697Z,101199.72
2022-11-26T23:34:35.385Z,101199.06
2022-11-26T23:36:38.854Z,101210.22
2022-11-26T23:38:41.658Z,101200.28
2022-11-26T23:40:44.296Z,101202.16
2022-11-26T23:42:47.010Z,101208.34
2022-11-26T23:44:49.641Z,101208.72
2022-11-26T23:46:52.432Z,101213.06
2022-11-26T23:48:55.884Z,101208.34
2022-11-26T23:50:59.068Z,101216.22
2022-11-26T23:53:01.674Z,101223.25
2022-11-26T23:55:04.547Z,101224.28
2022-11-26T23:57:11.823Z,101215.19
2022-11-26T23:59:18.617Z,101221.59
